createdAt,value
2022-10-23T00:01:46.157Z,75.65
2022-10-23T00:04:21.618Z,75.63
2022-10-23T00:06:49.104Z,75.60
2022-10-23T00:09:18.968Z,75.61
2022-10-23T00:11:50.886Z,75.53
2022-10-23T00:14:21.314Z,75.53
2022-10-23T00:16:48.308Z,75.58
2022-10-23T00:19:15.189Z,75.54
2022-10-23T00:21:41.961Z,75.60
2022-10-23T00:26:38.402Z,75.71
2022-10-23T00:29:05.202Z,75.75
2022-10-23T00:31:32.026Z,75.74
2022-10-23T00:33:58.765Z,75.59
2022-10-23T00:36:25.517Z,75.62
2022-10-23T00:38:52.383Z,75.62
2022-10-23T00:41:22.980Z,75.56
2022-10-23T00:43:58.363Z,75.57
2022-10-23T00:46:25.422Z,75.56
2022-10-23T00:48:52.260Z,75.53
2022-10-23T00:51:19.373Z,75.64
2022-10-23T00:54:01.043Z,75.72
2022-10-23T00:56:39.342Z,75.62
2022-10-23T00:59:06.256Z,75.70
2022-10-23T01:01:33.207Z,75.60
2022-10-23T01:04:02.094Z,75.56
2022-10-23T01:06:51.883Z,75.59
2022-10-23T01:09:21.366Z,75.67
2022-10-23T01:12:26.176Z,75.64
2022-10-23T01:15:16.643Z,75.63
2022-10-23T01:17:52.863Z,75.65
2022-10-23T01:20:31.476Z,75.72
2022-10-23T01:23:13.923Z,75.75
2022-10-23T01:25:59.721Z,75.73
2022-10-23T01:28:30.749Z,75.64
2022-10-23T01:31:01.177Z,75.65
2022-10-23T01:33:34.776Z,75.64
2022-10-23T01:36:08.736Z,75.68
2022-10-23T01:38:38.428Z,75.63
2022-10-23T01:41:20.619Z,75.69
2022-10-23T01:44:02.074Z,75.68
2022-10-23T01:46:30.369Z,75.76
2022-10-23T01:49:00.218Z,75.81
2022-10-23T01:51:28.904Z,75.76
2022-10-23T01:53:58.951Z,75.82
2022-10-23T01:56:33.735Z,75.75
2022-10-23T01:59:05.084Z,75.74
2022-10-23T02:01:34.679Z,75.78
2022-10-23T02:04:05.750Z,75.79
2022-10-23T02:06:32.847Z,75.81
2022-10-23T02:08:59.704Z,75.82
2022-10-23T02:11:26.653Z,75.86
2022-10-23T02:14:02.009Z,75.84
2022-10-23T02:16:40.770Z,75.82
2022-10-23T02:19:20.349Z,75.83
2022-10-23T02:21:56.299Z,75.85
2022-10-23T02:24:39.407Z,75.86
2022-10-23T02:27:30.529Z,75.80
2022-10-23T02:30:03.868Z,75.84
2022-10-23T02:32:31.155Z,75.84
2022-10-23T02:34:58.305Z,75.76
2022-10-23T02:37:25.657Z,75.75
2022-10-23T02:39:53.696Z,75.77
2022-10-23T02:42:33.603Z,75.76
2022-10-23T02:45:00.266Z,75.80
2022-10-23T02:47:39.472Z,75.76
2022-10-23T02:50:15.263Z,75.73
2022-10-23T02:52:59.330Z,75.75
2022-10-23T02:55:47.195Z,75.73
2022-10-23T02:58:16.901Z,75.56
2022-10-23T03:00:48.135Z,75.59
2022-10-23T03:03:29.991Z,75.61
2022-10-23T03:05:56.777Z,75.55
2022-10-23T03:08:23.553Z,75.61
2022-10-23T03:10:51.667Z,75.57
2022-10-23T03:13:18.535Z,75.57
2022-10-23T03:15:45.416Z,75.61
2022-10-23T03:18:12.239Z,75.67
2022-10-23T03:20:39.009Z,75.67
2022-10-23T03:23:05.839Z,75.66
2022-10-23T03:25:32.739Z,75.70
2022-10-23T03:28:00.358Z,75.66
2022-10-23T03:30:27.190Z,75.57
2022-10-23T03:32:53.964Z,75.59
2022-10-23T03:35:20.752Z,75.58
2022-10-23T03:37:47.626Z,75.69
2022-10-23T03:40:14.488Z,75.71
2022-10-23T03:42:41.263Z,75.67
2022-10-23T03:45:08.491Z,75.69
2022-10-23T03:47:35.703Z,75.77
2022-10-23T03:50:02.597Z,75.82
2022-10-23T03:52:29.478Z,75.84
2022-10-23T03:54:56.294Z,75.87
2022-10-23T03:57:24.328Z,75.85
2022-10-23T03:59:51.192Z,75.91
2022-10-23T04:02:19.000Z,75.89
2022-10-23T04:04:45.848Z,75.88
2022-10-23T04:07:12.638Z,75.97
2022-10-23T04:09:39.447Z,75.98
2022-10-23T04:12:06.699Z,75.99
2022-10-23T04:14:33.488Z,76.00
2022-10-23T04:17:00.294Z,76.00
2022-10-23T04:19:27.209Z,76.06
2022-10-23T04:21:54.029Z,76.05
2022-10-23T04:24:20.808Z,75.97
2022-10-23T04:26:47.587Z,75.94
2022-10-23T04:29:14.402Z,75.93
2022-10-23T04:31:41.154Z,75.99
2022-10-23T04:34:08.042Z,75.87
2022-10-23T04:36:34.931Z,75.81
2022-10-23T04:39:01.676Z,75.83
2022-10-23T04:41:28.447Z,75.80
2022-10-23T04:43:55.415Z,75.89
2022-10-23T04:46:22.274Z,75.81
2022-10-23T04:48:49.061Z,75.78
2022-10-23T04:51:15.908Z,75.82
2022-10-23T04:53:42.705Z,75.83
2022-10-23T04:56:14.062Z,75.94
2022-10-23T04:58:41.216Z,75.84
2022-10-23T05:01:10.758Z,75.79
2022-10-23T05:03:38.435Z,75.76
2022-10-23T05:06:05.934Z,75.83
2022-10-23T05:08:33.083Z,75.80
2022-10-23T05:10:59.913Z,75.93
2022-10-23T05:13:26.708Z,75.98
2022-10-23T05:15:53.757Z,75.99
2022-10-23T05:18:29.247Z,75.98
2022-10-23T05:21:22.232Z,75.99
2022-10-23T05:23:49.479Z,75.99
2022-10-23T05:26:16.262Z,75.96
2022-10-23T05:28:43.063Z,76.02
2022-10-23T05:31:09.907Z,75.93
2022-10-23T05:33:37.180Z,76.00
2022-10-23T05:36:04.610Z,76.00
2022-10-23T05:38:35.020Z,75.90
2022-10-23T05:41:02.069Z,76.03
2022-10-23T05:43:31.222Z,76.07
2022-10-23T05:45:58.733Z,75.99
2022-10-23T05:48:40.865Z,75.96
2022-10-23T05:51:10.231Z,75.96
2022-10-23T05:53:40.126Z,75.84
2022-10-23T05:56:09.682Z,75.87
2022-10-23T05:58:36.856Z,75.83
2022-10-23T06:01:08.659Z,75.88
2022-10-23T06:03:36.845Z,75.80
2022-10-23T06:06:04.231Z,75.79
2022-10-23T06:08:32.286Z,75.80
2022-10-23T06:10:59.044Z,75.83
2022-10-23T06:13:25.789Z,75.73
2022-10-23T06:15:52.504Z,75.75
2022-10-23T06:18:19.196Z,75.75
2022-10-23T06:20:45.966Z,75.69
2022-10-23T06:23:12.722Z,75.68
2022-10-23T06:25:39.427Z,75.65
2022-10-23T06:28:06.732Z,75.59
2022-10-23T06:30:33.578Z,75.43
2022-10-23T06:33:03.266Z,75.36
2022-10-23T06:35:32.934Z,75.30
2022-10-23T06:37:59.594Z,75.19
2022-10-23T06:40:26.326Z,75.20
2022-10-23T06:42:52.994Z,75.14
2022-10-23T06:45:19.678Z,75.18
2022-10-23T06:47:46.445Z,75.25
2022-10-23T06:50:15.444Z,75.28
2022-10-23T06:52:47.144Z,75.33
2022-10-23T06:55:14.786Z,75.53
2022-10-23T06:57:42.350Z,75.79
2022-10-23T07:00:10.093Z,75.81
2022-10-23T07:02:37.030Z,75.83
2022-10-23T07:05:04.464Z,75.75
2022-10-23T07:07:32.150Z,75.66
2022-10-23T07:09:59.020Z,75.59
2022-10-23T07:12:25.804Z,75.53
2022-10-23T07:14:52.499Z,75.59
2022-10-23T07:17:19.184Z,75.57
2022-10-23T07:19:47.489Z,75.66
2022-10-23T07:22:15.913Z,75.75
2022-10-23T07:24:43.161Z,75.98
2022-10-23T07:27:09.853Z,76.22
2022-10-23T07:29:37.085Z,76.37
2022-10-23T07:32:04.681Z,76.40
2022-10-23T07:34:32.186Z,76.48
2022-10-23T07:36:58.991Z,76.59
2022-10-23T07:39:25.882Z,76.70
2022-10-23T07:41:52.656Z,76.82
2022-10-23T07:44:21.064Z,77.00
2022-10-23T07:46:50.066Z,77.08
2022-10-23T07:49:17.017Z,77.21
2022-10-23T07:51:47.491Z,77.25
2022-10-23T07:54:17.217Z,77.33
2022-10-23T07:56:44.038Z,77.32
2022-10-23T07:59:14.560Z,77.30
2022-10-23T08:01:47.255Z,77.25
2022-10-23T08:04:14.497Z,77.14
2022-10-23T08:06:41.310Z,76.96
2022-10-23T08:09:08.199Z,76.87
2022-10-23T08:11:37.920Z,76.85
2022-10-23T08:14:08.288Z,76.77
2022-10-23T08:16:37.612Z,76.78
2022-10-23T08:19:06.393Z,76.82
2022-10-23T08:21:33.895Z,76.84
2022-10-23T08:24:01.316Z,76.85
2022-10-23T08:26:29.502Z,76.89
2022-10-23T08:28:58.487Z,77.00
2022-10-23T08:31:25.461Z,77.11
2022-10-23T08:33:52.215Z,77.22
2022-10-23T08:36:27.751Z,77.32
2022-10-23T08:38:56.476Z,77.53
2022-10-23T08:41:33.192Z,77.55
2022-10-23T08:44:13.484Z,77.87
2022-10-23T08:46:44.962Z,78.05
2022-10-23T08:49:25.011Z,78.46
2022-10-23T08:51:54.719Z,79.08
2022-10-23T08:54:53.686Z,78.75
2022-10-23T08:57:23.354Z,78.71
2022-10-23T08:59:57.696Z,79.20
2022-10-23T09:02:32.703Z,79.03
2022-10-23T09:04:59.616Z,79.37
2022-10-23T09:07:38.504Z,79.09
2022-10-23T09:10:30.809Z,79.18
2022-10-23T09:13:10.603Z,79.18
2022-10-23T09:15:44.709Z,78.96
2022-10-23T09:18:14.744Z,79.02
2022-10-23T09:20:44.178Z,79.16
2022-10-23T09:23:20.194Z,79.13
2022-10-23T09:25:48.514Z,79.26
2022-10-23T09:28:27.291Z,79.26
2022-10-23T09:30:54.115Z,79.29
2022-10-23T09:33:30.031Z,79.33
2022-10-23T09:35:56.753Z,79.51
2022-10-23T09:38:30.018Z,79.71
2022-10-23T09:41:00.087Z,80.90
2022-10-23T09:43:27.758Z,80.66
2022-10-23T09:46:02.980Z,81.66
2022-10-23T09:48:29.987Z,83.18
2022-10-23T09:50:59.661Z,81.47
2022-10-23T09:53:48.252Z,81.10
2022-10-23T09:56:36.544Z,80.89
2022-10-23T09:59:20.064Z,80.74
2022-10-23T10:01:52.841Z,81.53
2022-10-23T10:04:30.660Z,81.00
2022-10-23T10:06:59.534Z,81.25
2022-10-23T10:09:26.582Z,80.80
2022-10-23T10:12:18.513Z,80.66
2022-10-23T10:15:07.305Z,80.71
2022-10-23T10:17:54.566Z,80.71
2022-10-23T10:20:33.472Z,80.16
2022-10-23T10:23:13.447Z,80.01
2022-10-23T10:25:52.064Z,79.99
2022-10-23T10:28:31.683Z,79.73
2022-10-23T10:31:21.671Z,79.50
2022-10-23T10:34:16.415Z,79.30
2022-10-23T10:36:46.241Z,79.29
2022-10-23T10:39:45.624Z,79.32
2022-10-23T10:42:39.035Z,79.30
2022-10-23T10:45:37.696Z,79.25
2022-10-23T10:48:15.095Z,79.31
2022-10-23T10:50:52.951Z,79.49
2022-10-23T10:53:38.654Z,79.55
2022-10-23T10:56:11.815Z,79.45
2022-10-23T10:58:40.594Z,79.30
2022-10-23T11:01:26.800Z,79.12
2022-10-23T11:04:26.898Z,79.01
2022-10-23T11:06:56.717Z,79.21
2022-10-23T11:09:30.688Z,78.90
2022-10-23T11:11:57.722Z,79.04
2022-10-23T11:14:27.271Z,78.90
2022-10-23T11:17:13.117Z,79.15
2022-10-23T11:20:10.510Z,79.28
2022-10-23T11:22:48.392Z,79.23
2022-10-23T11:25:44.015Z,82.06
2022-10-23T11:28:26.164Z,79.45
2022-10-23T11:31:37.409Z,79.03
2022-10-23T11:34:23.446Z,79.11
2022-10-23T11:37:01.810Z,79.16
2022-10-23T11:39:31.204Z,79.42
2022-10-23T11:42:15.844Z,78.95
2022-10-23T11:44:48.471Z,78.87
2022-10-23T11:47:39.543Z,78.75
2022-10-23T11:50:07.168Z,78.89
2022-10-23T11:52:45.449Z,78.93
2022-10-23T11:55:19.737Z,78.95
2022-10-23T11:58:04.982Z,82.03
2022-10-23T12:00:35.326Z,79.15
2022-10-23T12:03:02.838Z,78.79
2022-10-23T12:05:37.908Z,78.92
2022-10-23T12:08:17.324Z,79.22
2022-10-23T12:10:47.084Z,78.61
2022-10-23T12:13:32.568Z,78.71
2022-10-23T12:16:01.037Z,78.75
2022-10-23T12:18:28.988Z,78.39
2022-10-23T12:21:01.950Z,78.37
2022-10-23T12:23:49.872Z,78.26
2022-10-23T12:26:17.432Z,78.23
2022-10-23T12:29:17.480Z,78.16
2022-10-23T12:31:54.521Z,78.19
2022-10-23T12:34:28.541Z,78.38
2022-10-23T12:37:11.142Z,78.37
2022-10-23T12:39:40.434Z,78.34
2022-10-23T12:42:21.310Z,78.48
2022-10-23T12:44:59.581Z,78.11
2022-10-23T12:47:28.408Z,77.97
2022-10-23T12:49:55.748Z,77.90
2022-10-23T12:52:25.666Z,77.84
2022-10-23T12:54:52.977Z,77.77
2022-10-23T12:57:26.121Z,77.83
2022-10-23T12:59:57.963Z,77.89
2022-10-23T13:02:28.573Z,77.81
2022-10-23T13:05:00.234Z,77.85
2022-10-23T13:07:32.027Z,78.43
2022-10-23T13:10:00.203Z,77.59
2022-10-23T13:12:33.696Z,77.46
2022-10-23T13:15:03.552Z,77.49
2022-10-23T13:17:39.972Z,77.62
2022-10-23T13:20:16.341Z,77.46
2022-10-23T13:22:48.047Z,77.41
2022-10-23T13:25:33.753Z,77.42
2022-10-23T13:28:27.864Z,77.38
2022-10-23T13:31:08.535Z,77.33
2022-10-23T13:33:40.313Z,77.37
2022-10-23T13:36:14.201Z,77.41
2022-10-23T13:38:44.974Z,77.41
2022-10-23T13:41:18.011Z,77.44
2022-10-23T13:43:47.606Z,77.50
2022-10-23T13:46:20.050Z,77.56
2022-10-23T13:48:48.501Z,77.49
2022-10-23T13:51:18.269Z,77.55
2022-10-23T13:53:46.774Z,77.47
2022-10-23T13:56:16.456Z,77.50
2022-10-23T13:58:43.809Z,77.53
2022-10-23T14:01:22.438Z,77.49
2022-10-23T14:03:52.721Z,77.44
2022-10-23T14:06:20.792Z,77.38
2022-10-23T14:08:48.519Z,77.36
2022-10-23T14:11:19.707Z,77.29
2022-10-23T14:13:50.696Z,77.30
2022-10-23T14:16:23.893Z,77.30
2022-10-23T14:18:51.341Z,77.35
2022-10-23T14:21:20.843Z,77.40
2022-10-23T14:23:49.701Z,77.36
2022-10-23T14:26:23.811Z,77.39
2022-10-23T14:28:56.865Z,77.45
2022-10-23T14:31:25.948Z,77.51
2022-10-23T14:34:01.039Z,77.66
2022-10-23T14:36:38.629Z,77.68
2022-10-23T14:39:18.214Z,77.77
2022-10-23T14:41:45.789Z,77.78
2022-10-23T14:44:13.572Z,77.81
2022-10-23T14:46:41.902Z,77.92
2022-10-23T14:49:09.929Z,78.00
2022-10-23T14:51:37.444Z,78.01
2022-10-23T14:54:07.464Z,78.02
2022-10-23T14:56:42.103Z,78.07
2022-10-23T14:59:11.047Z,78.08
2022-10-23T15:01:43.808Z,78.13
2022-10-23T15:04:15.361Z,78.15
2022-10-23T15:06:43.863Z,78.18
2022-10-23T15:09:11.436Z,78.20
2022-10-23T15:11:39.300Z,78.23
2022-10-23T15:14:07.659Z,78.29
2022-10-23T15:16:41.388Z,78.30
2022-10-23T15:19:15.124Z,78.33
2022-10-23T15:21:47.818Z,78.32
2022-10-23T15:24:16.636Z,78.33
2022-10-23T15:26:44.649Z,78.37
2022-10-23T15:29:13.305Z,78.40
2022-10-23T15:31:44.303Z,78.43
2022-10-23T15:34:16.972Z,78.47
2022-10-23T15:36:47.282Z,78.53
2022-10-23T15:39:17.973Z,78.59
2022-10-23T15:41:46.592Z,78.61
2022-10-23T15:44:17.375Z,78.63
2022-10-23T15:46:48.779Z,78.62
2022-10-23T15:49:17.682Z,78.51
2022-10-23T15:51:46.409Z,78.51
2022-10-23T15:54:19.283Z,78.53
2022-10-23T15:56:50.411Z,78.62
2022-10-23T15:59:19.696Z,78.72
2022-10-23T16:01:47.761Z,78.79
2022-10-23T16:04:16.366Z,78.85
2022-10-23T16:06:45.567Z,78.93
2022-10-23T16:09:13.834Z,79.06
2022-10-23T16:11:43.662Z,79.21
2022-10-23T16:14:16.918Z,79.34
2022-10-23T16:16:45.116Z,79.31
2022-10-23T16:19:14.456Z,79.40
2022-10-23T16:21:43.238Z,79.46
2022-10-23T16:24:11.787Z,79.56
2022-10-23T16:26:40.600Z,79.67
2022-10-23T16:29:10.108Z,79.68
2022-10-23T16:31:38.370Z,79.73
2022-10-23T16:34:09.247Z,79.85
2022-10-23T16:36:42.530Z,79.82
2022-10-23T16:39:11.963Z,79.90
2022-10-23T16:41:40.474Z,79.95
2022-10-23T16:44:09.152Z,79.97
2022-10-23T16:46:37.366Z,80.03
2022-10-23T16:49:08.159Z,79.92
2022-10-23T16:51:36.569Z,79.90
2022-10-23T16:54:05.336Z,79.78
2022-10-23T16:56:34.145Z,79.90
2022-10-23T16:59:02.405Z,79.86
2022-10-23T17:01:33.058Z,79.86
2022-10-23T17:04:01.440Z,79.92
2022-10-23T17:06:32.444Z,79.94
2022-10-23T17:09:02.274Z,79.99
2022-10-23T17:11:36.655Z,79.97
2022-10-23T17:14:13.602Z,79.87
2022-10-23T17:16:49.977Z,79.86
2022-10-23T17:19:40.032Z,79.79
2022-10-23T17:22:15.847Z,79.82
2022-10-23T17:24:47.397Z,79.84
2022-10-23T17:27:19.472Z,79.90
2022-10-23T17:29:47.351Z,79.97
2022-10-23T17:32:18.084Z,79.98
2022-10-23T17:34:46.667Z,79.94
2022-10-23T17:37:14.568Z,79.97
2022-10-23T17:39:43.370Z,79.99
2022-10-23T17:42:12.357Z,79.95
2022-10-23T17:44:44.403Z,79.97
2022-10-23T17:47:12.959Z,79.91
2022-10-23T17:49:42.866Z,79.87
2022-10-23T17:52:15.538Z,79.88
2022-10-23T17:54:46.949Z,79.91
2022-10-23T17:57:15.813Z,79.89
2022-10-23T17:59:44.110Z,79.92
2022-10-23T18:02:14.269Z,79.87
2022-10-23T18:04:43.717Z,79.84
2022-10-23T18:07:13.633Z,79.80
2022-10-23T18:09:43.065Z,79.83
2022-10-23T18:12:11.396Z,79.92
2022-10-23T18:14:39.813Z,79.83
2022-10-23T18:17:08.793Z,79.89
2022-10-23T18:19:37.100Z,79.96
2022-10-23T18:22:06.225Z,79.91
2022-10-23T18:24:36.515Z,79.84
2022-10-23T18:27:04.588Z,79.83
2022-10-23T18:29:33.136Z,79.81
2022-10-23T18:32:02.425Z,79.86
2022-10-23T18:34:30.796Z,79.80
2022-10-23T18:37:01.516Z,79.69
2022-10-23T18:39:30.171Z,79.62
2022-10-23T18:41:58.950Z,79.69
2022-10-23T18:44:30.772Z,79.63
2022-10-23T18:47:00.374Z,79.62
2022-10-23T18:49:29.087Z,79.62
2022-10-23T18:51:59.997Z,79.66
2022-10-23T18:54:30.188Z,79.66
2022-10-23T18:56:58.200Z,79.61
2022-10-23T18:59:26.353Z,79.56
2022-10-23T19:01:54.715Z,79.54
2022-10-23T19:04:23.199Z,79.53
2022-10-23T19:06:53.819Z,79.47
2022-10-23T19:09:22.338Z,79.45
2022-10-23T19:11:51.072Z,79.40
2022-10-23T19:14:22.973Z,79.39
2022-10-23T19:16:57.498Z,79.42
2022-10-23T19:19:30.086Z,79.47
2022-10-23T19:21:58.885Z,79.53
2022-10-23T19:24:34.151Z,79.55
2022-10-23T19:27:02.565Z,79.52
2022-10-23T19:29:31.602Z,79.48
2022-10-23T19:32:00.717Z,79.49
2022-10-23T19:34:28.696Z,79.56
2022-10-23T19:36:56.798Z,79.54
2022-10-23T19:39:26.378Z,79.67
2022-10-23T19:41:54.632Z,79.70
2022-10-23T19:44:22.238Z,79.69
2022-10-23T19:46:51.354Z,79.72
2022-10-23T19:49:21.187Z,79.73
2022-10-23T19:51:51.316Z,79.81
2022-10-23T19:54:21.210Z,79.85
2022-10-23T19:56:49.798Z,79.89
2022-10-23T19:59:20.045Z,79.95
2022-10-23T20:01:49.389Z,80.00
2022-10-23T20:04:20.956Z,79.99
2022-10-23T20:06:48.926Z,79.99
2022-10-23T20:09:17.174Z,79.97
2022-10-23T20:11:45.442Z,80.24
2022-10-23T20:14:15.207Z,80.00
2022-10-23T20:16:46.862Z,79.90
2022-10-23T20:21:47.965Z,79.81
2022-10-23T20:24:18.294Z,79.83
2022-10-23T20:26:52.673Z,79.81
2022-10-23T20:29:22.454Z,79.82
2022-10-23T20:31:50.425Z,79.82
2022-10-23T20:34:20.378Z,79.94
2022-10-23T20:36:49.978Z,79.96
2022-10-23T20:39:21.181Z,79.87
2022-10-23T20:41:48.794Z,79.82
2022-10-23T20:46:45.860Z,79.70
2022-10-23T20:49:14.356Z,79.73
2022-10-23T20:51:43.352Z,79.77
2022-10-23T20:54:10.847Z,79.69
2022-10-23T20:56:39.690Z,79.67
2022-10-23T20:59:13.133Z,79.69
2022-10-23T21:01:53.241Z,79.74
2022-10-23T21:04:23.386Z,79.68
2022-10-23T21:07:10.469Z,79.62
2022-10-23T21:09:39.275Z,79.64
2022-10-23T21:12:06.854Z,79.60
2022-10-23T21:14:34.370Z,79.58
2022-10-23T21:17:01.262Z,79.63
2022-10-23T21:19:28.338Z,79.64
2022-10-23T21:21:55.643Z,79.60
2022-10-23T21:24:22.668Z,79.55
2022-10-23T21:26:49.568Z,79.54
2022-10-23T21:29:19.032Z,79.46
2022-10-23T21:31:50.941Z,79.51
2022-10-23T21:34:17.815Z,79.53
2022-10-23T21:37:07.586Z,79.39
2022-10-23T21:39:33.491Z,79.36
2022-10-23T21:42:00.580Z,79.35
2022-10-23T21:44:27.341Z,79.30
2022-10-23T21:46:54.155Z,79.22
2022-10-23T21:49:20.995Z,79.16
2022-10-23T21:51:47.666Z,79.13
2022-10-23T21:54:17.778Z,79.18
2022-10-23T21:56:47.860Z,79.07
2022-10-23T21:59:18.803Z,79.01
2022-10-23T22:01:47.169Z,78.96
2022-10-23T22:04:15.606Z,78.91
2022-10-23T22:06:43.452Z,78.91
2022-10-23T22:09:13.167Z,78.84
2022-10-23T22:11:40.328Z,78.78
2022-10-23T22:14:07.599Z,78.73
2022-10-23T22:16:34.389Z,78.79
2022-10-23T22:19:01.175Z,78.73
2022-10-23T22:21:29.631Z,78.65
2022-10-23T22:23:58.372Z,78.62
2022-10-23T22:26:25.067Z,78.65
2022-10-23T22:28:53.672Z,78.66
2022-10-23T22:31:23.613Z,78.69
2022-10-23T22:33:50.999Z,78.62
2022-10-23T22:36:21.838Z,78.61
2022-10-23T22:38:48.903Z,78.62
2022-10-23T22:41:16.363Z,78.55
2022-10-23T22:43:43.283Z,78.53
2022-10-23T22:46:18.566Z,78.50
2022-10-23T22:48:46.001Z,78.49
2022-10-23T22:51:15.058Z,78.43
2022-10-23T22:53:42.901Z,78.43
2022-10-23T22:56:13.182Z,78.44
2022-10-23T22:58:40.297Z,78.41
2022-10-23T23:01:13.515Z,78.38
2022-10-23T23:03:41.109Z,78.41
2022-10-23T23:06:09.132Z,78.31
2022-10-23T23:08:37.555Z,78.36
2022-10-23T23:11:06.174Z,78.31
2022-10-23T23:13:33.919Z,78.27
2022-10-23T23:16:01.652Z,78.24
2022-10-23T23:18:29.389Z,78.23
2022-10-23T23:21:01.940Z,78.25
2022-10-23T23:23:29.231Z,78.27
2022-10-23T23:25:56.424Z,78.28
2022-10-23T23:28:23.488Z,78.19
2022-10-23T23:30:50.490Z,78.16
2022-10-23T23:33:19.591Z,78.18
2022-10-23T23:35:48.394Z,78.16
2022-10-23T23:38:15.372Z,78.10
2022-10-23T23:40:50.121Z,78.07
2022-10-23T23:43:17.300Z,77.98
2022-10-23T23:45:44.225Z,78.08
2022-10-23T23:48:11.430Z,78.06
2022-10-23T23:50:38.415Z,77.95
2022-10-23T23:53:05.306Z,77.97
2022-10-23T23:55:32.175Z,77.85
2022-10-23T23:57:59.169Z,77.82
